sensor_id;sensor_type;location;lat;lon;timestamp;P1;durP1;ratioP1;P2;durP2;ratioP2
7324;SDS011;3703;48.016;7.802;2023-04-03T00:01:41;6.43;;;4.40;;
7324;SDS011;3703;48.016;7.802;2023-04-03T00:04:28;4.73;;;3.67;;
7324;SDS011;3703;48.016;7.802;2023-04-03T00:07:16;5.27;;;4.10;;
7324;SDS011;3703;48.016;7.802;2023-04-03T00:10:06;5.13;;;4.13;;
7324;SDS011;3703;48.016;7.802;2023-04-03T00:12:55;6.70;;;4.97;;
7324;SDS011;3703;48.016;7.802;2023-04-03T00:15:43;5.73;;;3.97;;
7324;SDS011;3703;48.016;7.802;2023-04-03T00:18:31;5.00;;;4.53;;
7324;SDS011;3703;48.016;7.802;2023-04-03T00:21:18;4.27;;;3.87;;
7324;SDS011;3703;48.016;7.802;2023-04-03T00:24:06;5.33;;;4.37;;
7324;SDS011;3703;48.016;7.802;2023-04-03T00:26:55;4.23;;;3.83;;
7324;SDS011;3703;48.016;7.802;2023-04-03T00:29:43;4.13;;;3.67;;
7324;SDS011;3703;48.016;7.802;2023-04-03T00:32:30;4.97;;;4.07;;
7324;SDS011;3703;48.016;7.802;2023-04-03T00:35:18;5.17;;;3.57;;
7324;SDS011;3703;48.016;7.802;2023-04-03T00:38:07;4.77;;;3.60;;
7324;SDS011;3703;48.016;7.802;2023-04-03T00:40:54;5.50;;;4.10;;
7324;SDS011;3703;48.016;7.802;2023-04-03T00:43:43;5.60;;;4.13;;
7324;SDS011;3703;48.016;7.802;2023-04-03T00:46:31;5.03;;;4.03;;
7324;SDS011;3703;48.016;7.802;2023-04-03T00:49:19;5.00;;;4.37;;
7324;SDS011;3703;48.016;7.802;2023-04-03T00:52:08;5.47;;;4.40;;
7324;SDS011;3703;48.016;7.802;2023-04-03T00:55:02;6.97;;;4.17;;
7324;SDS011;3703;48.016;7.802;2023-04-03T00:57:53;5.83;;;3.83;;
7324;SDS011;3703;48.016;7.802;2023-04-03T01:00:43;5.93;;;4.40;;
7324;SDS011;3703;48.016;7.802;2023-04-03T01:03:35;5.30;;;4.00;;
7324;SDS011;3703;48.016;7.802;2023-04-03T01:06:24;3.60;;;3.03;;
7324;SDS011;3703;48.016;7.802;2023-04-03T01:09:16;5.70;;;4.10;;
7324;SDS011;3703;48.016;7.802;2023-04-03T01:12:13;5.17;;;3.50;;
7324;SDS011;3703;48.016;7.802;2023-04-03T01:15:04;4.67;;;3.40;;
7324;SDS011;3703;48.016;7.802;2023-04-03T01:17:56;4.73;;;3.70;;
7324;SDS011;3703;48.016;7.802;2023-04-03T01:21:05;3.40;;;3.10;;
7324;SDS011;3703;48.016;7.802;2023-04-03T01:24:27;4.43;;;4.00;;
7324;SDS011;3703;48.016;7.802;2023-04-03T01:27:19;4.00;;;3.60;;
7324;SDS011;3703;48.016;7.802;2023-04-03T01:30:08;3.63;;;3.33;;
7324;SDS011;3703;48.016;7.802;2023-04-03T01:32:58;3.63;;;3.27;;
7324;SDS011;3703;48.016;7.802;2023-04-03T01:35:45;4.33;;;3.10;;
7324;SDS011;3703;48.016;7.802;2023-04-03T01:38:33;5.00;;;3.90;;
7324;SDS011;3703;48.016;7.802;2023-04-03T01:41:21;4.33;;;3.63;;
7324;SDS011;3703;48.016;7.802;2023-04-03T01:44:09;5.20;;;3.43;;
7324;SDS011;3703;48.016;7.802;2023-04-03T01:46:57;5.00;;;4.00;;
7324;SDS011;3703;48.016;7.802;2023-04-03T01:49:46;4.73;;;3.40;;
7324;SDS011;3703;48.016;7.802;2023-04-03T01:52:33;4.27;;;3.87;;
7324;SDS011;3703;48.016;7.802;2023-04-03T01:55:21;3.97;;;3.50;;
7324;SDS011;3703;48.016;7.802;2023-04-03T01:58:09;3.43;;;2.87;;
7324;SDS011;3703;48.016;7.802;2023-04-03T02:00:57;4.60;;;3.90;;
7324;SDS011;3703;48.016;7.802;2023-04-03T02:03:45;4.03;;;3.00;;
7324;SDS011;3703;48.016;7.802;2023-04-03T02:06:34;3.97;;;3.57;;
7324;SDS011;3703;48.016;7.802;2023-04-03T02:09:21;5.33;;;3.03;;
7324;SDS011;3703;48.016;7.802;2023-04-03T02:12:09;3.40;;;2.97;;
7324;SDS011;3703;48.016;7.802;2023-04-03T02:14:57;4.60;;;3.67;;
7324;SDS011;3703;48.016;7.802;2023-04-03T02:17:44;3.83;;;3.43;;
7324;SDS011;3703;48.016;7.802;2023-04-03T02:20:32;4.13;;;3.60;;
7324;SDS011;3703;48.016;7.802;2023-04-03T02:23:21;3.93;;;3.17;;
7324;SDS011;3703;48.016;7.802;2023-04-03T02:26:09;5.87;;;3.30;;
7324;SDS011;3703;48.016;7.802;2023-04-03T02:28:59;4.93;;;3.53;;
7324;SDS011;3703;48.016;7.802;2023-04-03T02:31:48;4.60;;;3.77;;
7324;SDS011;3703;48.016;7.802;2023-04-03T02:34:35;4.97;;;4.07;;
7324;SDS011;3703;48.016;7.802;2023-04-03T02:37:23;3.70;;;2.80;;
7324;SDS011;3703;48.016;7.802;2023-04-03T02:40:12;4.00;;;3.30;;
7324;SDS011;3703;48.016;7.802;2023-04-03T02:43:00;4.23;;;3.50;;
7324;SDS011;3703;48.016;7.802;2023-04-03T02:45:48;4.20;;;3.70;;
7324;SDS011;3703;48.016;7.802;2023-04-03T02:48:35;5.40;;;3.60;;
7324;SDS011;3703;48.016;7.802;2023-04-03T02:51:24;5.13;;;4.33;;
7324;SDS011;3703;48.016;7.802;2023-04-03T02:54:11;4.23;;;3.57;;
7324;SDS011;3703;48.016;7.802;2023-04-03T02:57:00;4.60;;;3.67;;
7324;SDS011;3703;48.016;7.802;2023-04-03T02:59:48;3.77;;;3.37;;
7324;SDS011;3703;48.016;7.802;2023-04-03T03:02:36;5.03;;;4.17;;
7324;SDS011;3703;48.016;7.802;2023-04-03T03:05:23;4.53;;;4.10;;
7324;SDS011;3703;48.016;7.802;2023-04-03T03:08:11;4.27;;;3.87;;
7324;SDS011;3703;48.016;7.802;2023-04-03T03:10:59;5.00;;;4.57;;
7324;SDS011;3703;48.016;7.802;2023-04-03T03:13:49;6.97;;;3.90;;
7324;SDS011;3703;48.016;7.802;2023-04-03T03:16:36;5.67;;;3.60;;
7324;SDS011;3703;48.016;7.802;2023-04-03T03:19:24;5.30;;;3.93;;
7324;SDS011;3703;48.016;7.802;2023-04-03T03:22:12;4.57;;;3.30;;
7324;SDS011;3703;48.016;7.802;2023-04-03T03:24:59;4.43;;;3.80;;
7324;SDS011;3703;48.016;7.802;2023-04-03T03:27:47;4.43;;;3.70;;
7324;SDS011;3703;48.016;7.802;2023-04-03T03:30:37;4.17;;;3.67;;
7324;SDS011;3703;48.016;7.802;2023-04-03T03:33:24;3.63;;;3.33;;
7324;SDS011;3703;48.016;7.802;2023-04-03T03:36:12;4.27;;;3.70;;
7324;SDS011;3703;48.016;7.802;2023-04-03T03:39:00;5.00;;;4.00;;
7324;SDS011;3703;48.016;7.802;2023-04-03T03:41:48;4.90;;;4.40;;
7324;SDS011;3703;48.016;7.802;2023-04-03T03:44:36;4.50;;;3.77;;
7324;SDS011;3703;48.016;7.802;2023-04-03T03:47:25;4.43;;;3.97;;
7324;SDS011;3703;48.016;7.802;2023-04-03T03:50:13;4.33;;;3.93;;
7324;SDS011;3703;48.016;7.802;2023-04-03T03:53:00;5.57;;;3.53;;
7324;SDS011;3703;48.016;7.802;2023-04-03T03:55:48;3.53;;;3.23;;
7324;SDS011;3703;48.016;7.802;2023-04-03T03:58:36;5.10;;;3.50;;
7324;SDS011;3703;48.016;7.802;2023-04-03T04:01:24;5.27;;;3.20;;
7324;SDS011;3703;48.016;7.802;2023-04-03T04:04:13;4.93;;;3.27;;
7324;SDS011;3703;48.016;7.802;2023-04-03T04:07:00;3.20;;;2.90;;
7324;SDS011;3703;48.016;7.802;2023-04-03T04:09:48;4.83;;;3.73;;
7324;SDS011;3703;48.016;7.802;2023-04-03T04:12:36;4.37;;;3.33;;
7324;SDS011;3703;48.016;7.802;2023-04-03T04:15:24;4.30;;;3.37;;
7324;SDS011;3703;48.016;7.802;2023-04-03T04:18:12;4.93;;;4.03;;
7324;SDS011;3703;48.016;7.802;2023-04-03T04:21:01;4.10;;;3.40;;
7324;SDS011;3703;48.016;7.802;2023-04-03T04:23:49;4.10;;;3.70;;
7324;SDS011;3703;48.016;7.802;2023-04-03T04:26:36;4.67;;;4.27;;
7324;SDS011;3703;48.016;7.802;2023-04-03T04:29:24;5.53;;;3.80;;
7324;SDS011;3703;48.016;7.802;2023-04-03T04:32:12;5.33;;;3.43;;
7324;SDS011;3703;48.016;7.802;2023-04-03T04:35:00;3.77;;;3.37;;
7324;SDS011;3703;48.016;7.802;2023-04-03T04:37:49;4.23;;;3.83;;
7324;SDS011;3703;48.016;7.802;2023-04-03T04:40:36;4.23;;;3.80;;
7324;SDS011;3703;48.016;7.802;2023-04-03T04:43:24;4.63;;;3.67;;
7324;SDS011;3703;48.016;7.802;2023-04-03T04:46:11;4.13;;;3.40;;
7324;SDS011;3703;48.016;7.802;2023-04-03T04:48:59;4.23;;;3.77;;
7324;SDS011;3703;48.016;7.802;2023-04-03T04:51:47;5.03;;;3.90;;
7324;SDS011;3703;48.016;7.802;2023-04-03T04:54:36;5.50;;;3.93;;
7324;SDS011;3703;48.016;7.802;2023-04-03T04:57:24;4.40;;;3.57;;
7324;SDS011;3703;48.016;7.802;2023-04-03T05:00:11;5.50;;;3.63;;
7324;SDS011;3703;48.016;7.802;2023-04-03T05:03:01;3.63;;;3.13;;
7324;SDS011;3703;48.016;7.802;2023-04-03T05:05:49;4.40;;;4.00;;
7324;SDS011;3703;48.016;7.802;2023-04-03T05:08:36;3.47;;;3.07;;
7324;SDS011;3703;48.016;7.802;2023-04-03T05:11:26;4.77;;;3.53;;
7324;SDS011;3703;48.016;7.802;2023-04-03T05:14:13;5.70;;;3.63;;
7324;SDS011;3703;48.016;7.802;2023-04-03T05:17:01;5.23;;;3.67;;
7324;SDS011;3703;48.016;7.802;2023-04-03T05:19:49;5.80;;;4.23;;
7324;SDS011;3703;48.016;7.802;2023-04-03T05:22:37;7.57;;;4.10;;
7324;SDS011;3703;48.016;7.802;2023-04-03T05:25:25;5.17;;;4.23;;
7324;SDS011;3703;48.016;7.802;2023-04-03T05:28:14;5.33;;;4.50;;
7324;SDS011;3703;48.016;7.802;2023-04-03T05:31:02;4.80;;;4.30;;
7324;SDS011;3703;48.016;7.802;2023-04-03T05:33:50;5.70;;;3.57;;
7324;SDS011;3703;48.016;7.802;2023-04-03T05:36:37;4.60;;;3.67;;
7324;SDS011;3703;48.016;7.802;2023-04-03T05:39:25;5.13;;;3.70;;
7324;SDS011;3703;48.016;7.802;2023-04-03T05:42:13;4.93;;;3.67;;
7324;SDS011;3703;48.016;7.802;2023-04-03T05:45:04;4.43;;;3.20;;
7324;SDS011;3703;48.016;7.802;2023-04-03T05:47:52;4.43;;;3.10;;
7324;SDS011;3703;48.016;7.802;2023-04-03T05:50:40;5.00;;;4.43;;
7324;SDS011;3703;48.016;7.802;2023-04-03T05:53:29;6.27;;;4.07;;
7324;SDS011;3703;48.016;7.802;2023-04-03T05:56:21;4.50;;;3.90;;
7324;SDS011;3703;48.016;7.802;2023-04-03T05:59:08;5.00;;;3.77;;
7324;SDS011;3703;48.016;7.802;2023-04-03T06:01:57;5.60;;;4.17;;
7324;SDS011;3703;48.016;7.802;2023-04-03T06:04:46;4.27;;;3.63;;
7324;SDS011;3703;48.016;7.802;2023-04-03T06:07:34;5.13;;;4.17;;
7324;SDS011;3703;48.016;7.802;2023-04-03T06:10:22;4.60;;;3.60;;
7324;SDS011;3703;48.016;7.802;2023-04-03T06:13:10;5.27;;;3.93;;
7324;SDS011;3703;48.016;7.802;2023-04-03T06:15:59;4.33;;;3.67;;
7324;SDS011;3703;48.016;7.802;2023-04-03T06:18:49;5.93;;;4.23;;
7324;SDS011;3703;48.016;7.802;2023-04-03T06:21:37;6.63;;;4.10;;
7324;SDS011;3703;48.016;7.802;2023-04-03T06:24:25;4.43;;;3.50;;
7324;SDS011;3703;48.016;7.802;2023-04-03T06:27:12;4.63;;;4.23;;
7324;SDS011;3703;48.016;7.802;2023-04-03T06:30:02;4.27;;;3.77;;
7324;SDS011;3703;48.016;7.802;2023-04-03T06:32:50;4.37;;;3.73;;
7324;SDS011;3703;48.016;7.802;2023-04-03T06:35:40;6.23;;;3.93;;
7324;SDS011;3703;48.016;7.802;2023-04-03T06:38:27;3.90;;;3.50;;
7324;SDS011;3703;48.016;7.802;2023-04-03T06:41:15;4.00;;;3.17;;
7324;SDS011;3703;48.016;7.802;2023-04-03T06:44:03;4.47;;;3.80;;
7324;SDS011;3703;48.016;7.802;2023-04-03T06:46:51;3.97;;;3.50;;
7324;SDS011;3703;48.016;7.802;2023-04-03T06:49:39;5.23;;;3.50;;
7324;SDS011;3703;48.016;7.802;2023-04-03T06:52:29;4.17;;;3.43;;
7324;SDS011;3703;48.016;7.802;2023-04-03T06:55:17;4.27;;;3.50;;
7324;SDS011;3703;48.016;7.802;2023-04-03T06:58:05;3.77;;;3.37;;
7324;SDS011;3703;48.016;7.802;2023-04-03T07:00:53;4.33;;;3.93;;
7324;SDS011;3703;48.016;7.802;2023-04-03T07:03:41;3.70;;;3.20;;
7324;SDS011;3703;48.016;7.802;2023-04-03T07:06:28;3.50;;;3.20;;
7324;SDS011;3703;48.016;7.802;2023-04-03T07:09:19;5.73;;;3.77;;
7324;SDS011;3703;48.016;7.802;2023-04-03T07:12:06;4.93;;;3.43;;
7324;SDS011;3703;48.016;7.802;2023-04-03T07:14:54;4.33;;;3.70;;
7324;SDS011;3703;48.016;7.802;2023-04-03T07:17:42;4.33;;;3.80;;
7324;SDS011;3703;48.016;7.802;2023-04-03T07:20:30;5.73;;;3.37;;
7324;SDS011;3703;48.016;7.802;2023-04-03T07:23:17;3.43;;;2.87;;
7324;SDS011;3703;48.016;7.802;2023-04-03T07:26:07;2.87;;;2.63;;
7324;SDS011;3703;48.016;7.802;2023-04-03T07:28:54;3.27;;;2.47;;
7324;SDS011;3703;48.016;7.802;2023-04-03T07:31:42;2.33;;;2.13;;
7324;SDS011;3703;48.016;7.802;2023-04-03T07:34:30;2.50;;;2.30;;
7324;SDS011;3703;48.016;7.802;2023-04-03T07:37:19;2.50;;;2.30;;
7324;SDS011;3703;48.016;7.802;2023-04-03T07:40:07;2.40;;;2.20;;
7324;SDS011;3703;48.016;7.802;2023-04-03T07:42:57;2.23;;;2.03;;
7324;SDS011;3703;48.016;7.802;2023-04-03T07:45:45;2.80;;;2.60;;
7324;SDS011;3703;48.016;7.802;2023-04-03T07:48:34;2.47;;;2.27;;
7324;SDS011;3703;48.016;7.802;2023-04-03T07:51:22;3.57;;;2.63;;
7324;SDS011;3703;48.016;7.802;2023-04-03T07:54:11;3.37;;;2.33;;
7324;SDS011;3703;48.016;7.802;2023-04-03T07:56:59;3.13;;;2.83;;
7324;SDS011;3703;48.016;7.802;2023-04-03T07:59:48;3.20;;;2.47;;
7324;SDS011;3703;48.016;7.802;2023-04-03T08:02:35;2.60;;;2.30;;
7324;SDS011;3703;48.016;7.802;2023-04-03T08:05:23;2.60;;;2.40;;
7324;SDS011;3703;48.016;7.802;2023-04-03T08:08:12;2.77;;;2.57;;
7324;SDS011;3703;48.016;7.802;2023-04-03T08:11:02;2.73;;;2.50;;
7324;SDS011;3703;48.016;7.802;2023-04-03T08:13:51;2.40;;;2.17;;
7324;SDS011;3703;48.016;7.802;2023-04-03T08:16:40;2.47;;;2.23;;
7324;SDS011;3703;48.016;7.802;2023-04-03T08:19:28;3.83;;;2.60;;
7324;SDS011;3703;48.016;7.802;2023-04-03T08:22:16;3.50;;;2.50;;
7324;SDS011;3703;48.016;7.802;2023-04-03T08:25:04;2.70;;;2.50;;
7324;SDS011;3703;48.016;7.802;2023-04-03T08:27:52;2.90;;;2.70;;
7324;SDS011;3703;48.016;7.802;2023-04-03T08:30:40;3.53;;;3.10;;
7324;SDS011;3703;48.016;7.802;2023-04-03T08:33:30;3.63;;;2.93;;
7324;SDS011;3703;48.016;7.802;2023-04-03T08:36:19;3.07;;;2.80;;
7324;SDS011;3703;48.016;7.802;2023-04-03T08:39:08;3.73;;;2.57;;
7324;SDS011;3703;48.016;7.802;2023-04-03T08:41:57;3.77;;;2.53;;
7324;SDS011;3703;48.016;7.802;2023-04-03T08:44:52;3.70;;;2.90;;
7324;SDS011;3703;48.016;7.802;2023-04-03T08:47:47;6.43;;;3.50;;
7324;SDS011;3703;48.016;7.802;2023-04-03T08:50:41;3.77;;;3.10;;
7324;SDS011;3703;48.016;7.802;2023-04-03T08:53:35;7.00;;;3.03;;
7324;SDS011;3703;48.016;7.802;2023-04-03T08:56:26;5.30;;;4.30;;
7324;SDS011;3703;48.016;7.802;2023-04-03T08:59:15;4.20;;;3.53;;
7324;SDS011;3703;48.016;7.802;2023-04-03T09:02:16;4.37;;;3.23;;
7324;SDS011;3703;48.016;7.802;2023-04-03T09:05:14;3.50;;;3.20;;
7324;SDS011;3703;48.016;7.802;2023-04-03T09:08:06;4.30;;;3.10;;
7324;SDS011;3703;48.016;7.802;2023-04-03T09:11:06;3.37;;;2.83;;
7324;SDS011;3703;48.016;7.802;2023-04-03T09:14:04;5.70;;;3.20;;
7324;SDS011;3703;48.016;7.802;2023-04-03T09:17:00;5.57;;;3.27;;
7324;SDS011;3703;48.016;7.802;2023-04-03T09:19:57;3.63;;;3.10;;
7324;SDS011;3703;48.016;7.802;2023-04-03T09:22:51;3.43;;;3.13;;
7324;SDS011;3703;48.016;7.802;2023-04-03T09:25:41;4.30;;;3.53;;
7324;SDS011;3703;48.016;7.802;2023-04-03T09:28:29;3.60;;;3.13;;
7324;SDS011;3703;48.016;7.802;2023-04-03T09:31:19;3.83;;;3.00;;
7324;SDS011;3703;48.016;7.802;2023-04-03T09:34:12;5.10;;;3.47;;
7324;SDS011;3703;48.016;7.802;2023-04-03T09:37:07;6.07;;;2.80;;
7324;SDS011;3703;48.016;7.802;2023-04-03T09:39:54;4.20;;;3.17;;
7324;SDS011;3703;48.016;7.802;2023-04-03T09:42:43;4.90;;;3.50;;
7324;SDS011;3703;48.016;7.802;2023-04-03T09:45:32;3.30;;;3.00;;
7324;SDS011;3703;48.016;7.802;2023-04-03T09:48:23;3.27;;;2.83;;
7324;SDS011;3703;48.016;7.802;2023-04-03T09:51:13;3.50;;;3.20;;
7324;SDS011;3703;48.016;7.802;2023-04-03T09:54:04;3.13;;;2.83;;
7324;SDS011;3703;48.016;7.802;2023-04-03T09:57:28;3.23;;;2.90;;
7324;SDS011;3703;48.016;7.802;2023-04-03T10:00:22;2.83;;;2.57;;
7324;SDS011;3703;48.016;7.802;2023-04-03T10:03:22;3.33;;;2.27;;
7324;SDS011;3703;48.016;7.802;2023-04-03T10:06:21;3.10;;;2.40;;
7324;SDS011;3703;48.016;7.802;2023-04-03T10:09:20;2.90;;;2.47;;
7324;SDS011;3703;48.016;7.802;2023-04-03T10:12:11;3.13;;;2.77;;
7324;SDS011;3703;48.016;7.802;2023-04-03T10:15:00;2.90;;;2.60;;
7324;SDS011;3703;48.016;7.802;2023-04-03T10:17:53;3.03;;;2.70;;
7324;SDS011;3703;48.016;7.802;2023-04-03T10:20:48;2.93;;;2.23;;
7324;SDS011;3703;48.016;7.802;2023-04-03T10:23:39;2.73;;;2.50;;
7324;SDS011;3703;48.016;7.802;2023-04-03T10:26:32;3.63;;;2.53;;
7324;SDS011;3703;48.016;7.802;2023-04-03T10:29:31;2.90;;;2.70;;
7324;SDS011;3703;48.016;7.802;2023-04-03T10:32:32;3.67;;;2.70;;
7324;SDS011;3703;48.016;7.802;2023-04-03T10:35:39;2.23;;;1.70;;
7324;SDS011;3703;48.016;7.802;2023-04-03T10:38:38;2.47;;;2.27;;
7324;SDS011;3703;48.016;7.802;2023-04-03T10:41:35;2.93;;;2.30;;
7324;SDS011;3703;48.016;7.802;2023-04-03T10:44:37;2.43;;;2.23;;
7324;SDS011;3703;48.016;7.802;2023-04-03T10:47:40;3.10;;;2.80;;
7324;SDS011;3703;48.016;7.802;2023-04-03T10:50:42;3.50;;;2.40;;
7324;SDS011;3703;48.016;7.802;2023-04-03T10:53:39;3.87;;;2.40;;
7324;SDS011;3703;48.016;7.802;2023-04-03T10:56:37;2.30;;;2.10;;
7324;SDS011;3703;48.016;7.802;2023-04-03T10:59:28;3.27;;;2.73;;
7324;SDS011;3703;48.016;7.802;2023-04-03T11:02:22;2.10;;;1.83;;
7324;SDS011;3703;48.016;7.802;2023-04-03T11:05:15;3.63;;;2.40;;
7324;SDS011;3703;48.016;7.802;2023-04-03T11:08:12;2.90;;;2.70;;
7324;SDS011;3703;48.016;7.802;2023-04-03T11:11:11;2.60;;;2.40;;
7324;SDS011;3703;48.016;7.802;2023-04-03T11:14:04;2.67;;;2.47;;
7324;SDS011;3703;48.016;7.802;2023-04-03T11:17:04;3.33;;;2.17;;
7324;SDS011;3703;48.016;7.802;2023-04-03T11:20:03;2.77;;;2.57;;
7324;SDS011;3703;48.016;7.802;2023-04-03T11:23:01;3.47;;;2.53;;
7324;SDS011;3703;48.016;7.802;2023-04-03T11:25:54;2.17;;;2.00;;
7324;SDS011;3703;48.016;7.802;2023-04-03T11:28:46;2.87;;;2.67;;
7324;SDS011;3703;48.016;7.802;2023-04-03T11:31:41;3.00;;;2.40;;
7324;SDS011;3703;48.016;7.802;2023-04-03T11:34:45;2.87;;;2.67;;
7324;SDS011;3703;48.016;7.802;2023-04-03T11:37:37;2.40;;;2.20;;
7324;SDS011;3703;48.016;7.802;2023-04-03T11:40:28;3.00;;;2.80;;
7324;SDS011;3703;48.016;7.802;2023-04-03T11:43:23;2.77;;;2.57;;
7324;SDS011;3703;48.016;7.802;2023-04-03T11:46:14;2.77;;;2.40;;
7324;SDS011;3703;48.016;7.802;2023-04-03T11:49:04;2.63;;;2.30;;
7324;SDS011;3703;48.016;7.802;2023-04-03T11:51:55;2.40;;;2.20;;
7324;SDS011;3703;48.016;7.802;2023-04-03T11:54:47;2.63;;;2.43;;
7324;SDS011;3703;48.016;7.802;2023-04-03T11:57:45;1.97;;;1.67;;
7324;SDS011;3703;48.016;7.802;2023-04-03T12:01:07;2.93;;;2.13;;
7324;SDS011;3703;48.016;7.802;2023-04-03T12:03:57;2.43;;;2.23;;
7324;SDS011;3703;48.016;7.802;2023-04-03T12:06:59;2.40;;;2.20;;
7324;SDS011;3703;48.016;7.802;2023-04-03T12:10:18;2.70;;;2.40;;
7324;SDS011;3703;48.016;7.802;2023-04-03T12:13:12;2.60;;;2.20;;
7324;SDS011;3703;48.016;7.802;2023-04-03T12:16:03;2.97;;;2.67;;
7324;SDS011;3703;48.016;7.802;2023-04-03T12:18:57;2.63;;;2.43;;
7324;SDS011;3703;48.016;7.802;2023-04-03T12:22:08;2.57;;;2.37;;
7324;SDS011;3703;48.016;7.802;2023-04-03T12:25:01;2.63;;;2.20;;
7324;SDS011;3703;48.016;7.802;2023-04-03T12:28:37;2.50;;;2.30;;
7324;SDS011;3703;48.016;7.802;2023-04-03T12:31:31;2.87;;;2.13;;
7324;SDS011;3703;48.016;7.802;2023-04-03T12:41:28;2.90;;;2.33;;
7324;SDS011;3703;48.016;7.802;2023-04-03T12:44:27;3.20;;;2.93;;
7324;SDS011;3703;48.016;7.802;2023-04-03T12:47:33;2.80;;;2.60;;
7324;SDS011;3703;48.016;7.802;2023-04-03T12:50:24;3.10;;;2.80;;
7324;SDS011;3703;48.016;7.802;2023-04-03T12:53:16;3.13;;;2.80;;
7324;SDS011;3703;48.016;7.802;2023-04-03T12:56:24;3.20;;;2.90;;
7324;SDS011;3703;48.016;7.802;2023-04-03T12:59:16;3.27;;;3.07;;
7324;SDS011;3703;48.016;7.802;2023-04-03T13:02:19;2.83;;;2.63;;
7324;SDS011;3703;48.016;7.802;2023-04-03T13:05:13;2.50;;;2.30;;
7324;SDS011;3703;48.016;7.802;2023-04-03T13:08:04;2.80;;;2.60;;
7324;SDS011;3703;48.016;7.802;2023-04-03T13:10:58;2.50;;;2.30;;
7324;SDS011;3703;48.016;7.802;2023-04-03T13:14:00;2.97;;;2.77;;
7324;SDS011;3703;48.016;7.802;2023-04-03T13:16:54;2.70;;;2.50;;
7324;SDS011;3703;48.016;7.802;2023-04-03T13:19:44;3.30;;;2.80;;
7324;SDS011;3703;48.016;7.802;2023-04-03T13:22:33;2.87;;;2.67;;
7324;SDS011;3703;48.016;7.802;2023-04-03T13:25:29;3.07;;;2.77;;
7324;SDS011;3703;48.016;7.802;2023-04-03T13:28:21;4.17;;;2.93;;
7324;SDS011;3703;48.016;7.802;2023-04-03T13:31:17;2.90;;;2.13;;
7324;SDS011;3703;48.016;7.802;2023-04-03T13:34:10;3.57;;;2.77;;
7324;SDS011;3703;48.016;7.802;2023-04-03T13:37:03;7.70;;;2.50;;
7324;SDS011;3703;48.016;7.802;2023-04-03T13:40:00;3.17;;;2.30;;
7324;SDS011;3703;48.016;7.802;2023-04-03T13:43:00;2.77;;;2.37;;
7324;SDS011;3703;48.016;7.802;2023-04-03T13:45:54;4.43;;;2.63;;
7324;SDS011;3703;48.016;7.802;2023-04-03T13:48:54;4.83;;;3.23;;
7324;SDS011;3703;48.016;7.802;2023-04-03T13:51:43;3.30;;;3.00;;
7324;SDS011;3703;48.016;7.802;2023-04-03T13:54:32;3.43;;;3.13;;
7324;SDS011;3703;48.016;7.802;2023-04-03T13:57:22;3.27;;;2.97;;
7324;SDS011;3703;48.016;7.802;2023-04-03T14:00:21;2.40;;;2.20;;
7324;SDS011;3703;48.016;7.802;2023-04-03T14:03:18;2.80;;;2.60;;
7324;SDS011;3703;48.016;7.802;2023-04-03T14:06:11;3.27;;;2.93;;
7324;SDS011;3703;48.016;7.802;2023-04-03T14:09:00;4.03;;;3.07;;
7324;SDS011;3703;48.016;7.802;2023-04-03T14:11:49;3.17;;;2.40;;
7324;SDS011;3703;48.016;7.802;2023-04-03T14:14:40;3.30;;;3.00;;
7324;SDS011;3703;48.016;7.802;2023-04-03T14:17:27;3.57;;;3.27;;
7324;SDS011;3703;48.016;7.802;2023-04-03T14:20:16;3.10;;;2.70;;
7324;SDS011;3703;48.016;7.802;2023-04-03T14:23:08;2.90;;;2.60;;
7324;SDS011;3703;48.016;7.802;2023-04-03T14:25:56;3.57;;;2.47;;
7324;SDS011;3703;48.016;7.802;2023-04-03T14:28:44;5.50;;;3.00;;
7324;SDS011;3703;48.016;7.802;2023-04-03T14:31:33;3.33;;;2.73;;
7324;SDS011;3703;48.016;7.802;2023-04-03T14:34:21;6.70;;;4.17;;
7324;SDS011;3703;48.016;7.802;2023-04-03T14:37:09;3.47;;;3.00;;
7324;SDS011;3703;48.016;7.802;2023-04-03T14:40:01;2.83;;;2.63;;
7324;SDS011;3703;48.016;7.802;2023-04-03T14:42:51;3.37;;;2.80;;
7324;SDS011;3703;48.016;7.802;2023-04-03T14:45:40;3.73;;;2.50;;
7324;SDS011;3703;48.016;7.802;2023-04-03T14:48:28;2.43;;;2.23;;
7324;SDS011;3703;48.016;7.802;2023-04-03T14:51:17;3.20;;;2.90;;
7324;SDS011;3703;48.016;7.802;2023-04-03T14:54:05;3.00;;;2.77;;
7324;SDS011;3703;48.016;7.802;2023-04-03T14:57:00;4.50;;;3.23;;
7324;SDS011;3703;48.016;7.802;2023-04-03T14:59:49;3.27;;;2.97;;
7324;SDS011;3703;48.016;7.802;2023-04-03T15:02:37;4.23;;;2.80;;
7324;SDS011;3703;48.016;7.802;2023-04-03T15:05:25;3.13;;;2.80;;
7324;SDS011;3703;48.016;7.802;2023-04-03T15:08:17;4.43;;;3.73;;
7324;SDS011;3703;48.016;7.802;2023-04-03T15:11:07;3.13;;;2.90;;
7324;SDS011;3703;48.016;7.802;2023-04-03T15:13:57;4.27;;;3.63;;
7324;SDS011;3703;48.016;7.802;2023-04-03T15:16:45;3.17;;;2.87;;
7324;SDS011;3703;48.016;7.802;2023-04-03T15:19:35;3.13;;;2.83;;
7324;SDS011;3703;48.016;7.802;2023-04-03T15:22:24;7.37;;;4.07;;
7324;SDS011;3703;48.016;7.802;2023-04-03T15:25:12;4.60;;;2.70;;
7324;SDS011;3703;48.016;7.802;2023-04-03T15:28:01;4.40;;;3.10;;
7324;SDS011;3703;48.016;7.802;2023-04-03T15:30:50;2.70;;;2.50;;
7324;SDS011;3703;48.016;7.802;2023-04-03T15:33:38;3.37;;;3.07;;
7324;SDS011;3703;48.016;7.802;2023-04-03T15:36:26;5.60;;;3.07;;
7324;SDS011;3703;48.016;7.802;2023-04-03T15:39:14;3.53;;;2.73;;
7324;SDS011;3703;48.016;7.802;2023-04-03T15:42:01;5.33;;;2.70;;
7324;SDS011;3703;48.016;7.802;2023-04-03T15:44:51;2.93;;;2.73;;
7324;SDS011;3703;48.016;7.802;2023-04-03T15:47:41;4.30;;;3.30;;
7324;SDS011;3703;48.016;7.802;2023-04-03T15:50:28;2.63;;;2.40;;
7324;SDS011;3703;48.016;7.802;2023-04-03T15:53:16;4.30;;;2.80;;
7324;SDS011;3703;48.016;7.802;2023-04-03T15:56:04;2.40;;;2.20;;
7324;SDS011;3703;48.016;7.802;2023-04-03T15:58:53;3.80;;;2.93;;
7324;SDS011;3703;48.016;7.802;2023-04-03T16:01:41;2.60;;;2.30;;
7324;SDS011;3703;48.016;7.802;2023-04-03T16:04:31;2.30;;;2.10;;
7324;SDS011;3703;48.016;7.802;2023-04-03T16:07:20;3.20;;;2.90;;
7324;SDS011;3703;48.016;7.802;2023-04-03T16:10:08;4.83;;;3.50;;
7324;SDS011;3703;48.016;7.802;2023-04-03T16:12:57;2.50;;;2.30;;
7324;SDS011;3703;48.016;7.802;2023-04-03T16:15:45;3.23;;;2.70;;
7324;SDS011;3703;48.016;7.802;2023-04-03T16:18:34;4.07;;;3.03;;
7324;SDS011;3703;48.016;7.802;2023-04-03T16:21:24;2.97;;;2.67;;
7324;SDS011;3703;48.016;7.802;2023-04-03T16:24:12;3.13;;;2.80;;
7324;SDS011;3703;48.016;7.802;2023-04-03T16:26:59;3.83;;;2.70;;
7324;SDS011;3703;48.016;7.802;2023-04-03T16:29:47;2.63;;;2.43;;
7324;SDS011;3703;48.016;7.802;2023-04-03T16:32:35;3.37;;;3.07;;
7324;SDS011;3703;48.016;7.802;2023-04-03T16:35:24;2.83;;;2.63;;
7324;SDS011;3703;48.016;7.802;2023-04-03T16:38:14;3.70;;;3.20;;
7324;SDS011;3703;48.016;7.802;2023-04-03T16:41:01;3.03;;;2.57;;
7324;SDS011;3703;48.016;7.802;2023-04-03T16:43:50;3.33;;;2.47;;
7324;SDS011;3703;48.016;7.802;2023-04-03T16:46:37;3.37;;;2.30;;
7324;SDS011;3703;48.016;7.802;2023-04-03T16:49:25;5.67;;;2.97;;
7324;SDS011;3703;48.016;7.802;2023-04-03T16:52:17;3.23;;;2.87;;
7324;SDS011;3703;48.016;7.802;2023-04-03T16:55:07;3.73;;;2.63;;
7324;SDS011;3703;48.016;7.802;2023-04-03T16:57:55;2.90;;;2.70;;
7324;SDS011;3703;48.016;7.802;2023-04-03T17:00:43;3.40;;;3.10;;
7324;SDS011;3703;48.016;7.802;2023-04-03T17:03:32;2.10;;;1.90;;
7324;SDS011;3703;48.016;7.802;2023-04-03T17:06:20;2.43;;;2.20;;
7324;SDS011;3703;48.016;7.802;2023-04-03T17:09:08;2.87;;;2.67;;
7324;SDS011;3703;48.016;7.802;2023-04-03T17:11:58;3.10;;;2.87;;
7324;SDS011;3703;48.016;7.802;2023-04-03T17:14:46;2.60;;;2.40;;
7324;SDS011;3703;48.016;7.802;2023-04-03T17:17:34;2.77;;;2.33;;
7324;SDS011;3703;48.016;7.802;2023-04-03T17:20:22;2.70;;;2.13;;
7324;SDS011;3703;48.016;7.802;2023-04-03T17:23:10;2.40;;;2.20;;
7324;SDS011;3703;48.016;7.802;2023-04-03T17:25:57;3.63;;;2.00;;
7324;SDS011;3703;48.016;7.802;2023-04-03T17:28:47;2.73;;;2.27;;
7324;SDS011;3703;48.016;7.802;2023-04-03T17:31:34;2.20;;;2.00;;
7324;SDS011;3703;48.016;7.802;2023-04-03T17:34:22;2.77;;;2.57;;
7324;SDS011;3703;48.016;7.802;2023-04-03T17:37:10;3.17;;;2.10;;
7324;SDS011;3703;48.016;7.802;2023-04-03T17:39:58;2.20;;;2.00;;
7324;SDS011;3703;48.016;7.802;2023-04-03T17:42:45;6.23;;;2.60;;
7324;SDS011;3703;48.016;7.802;2023-04-03T17:45:35;2.50;;;2.30;;
7324;SDS011;3703;48.016;7.802;2023-04-03T17:48:23;3.20;;;2.90;;